Acworth, NH

1:53 PM EDT on September 30, 2014 (GMT -0400)
Beaudry Development | Change Station
CLOSE
Current Station
Personal Weather Station
Location: Charlestown, NH
Elevation: 600 ft
Nearby Weather Stations

Elev 600 ft 43.26 °N, 72.40 °W | Updated 20 seconds ago

Overcast
Overcast
66.6 °F
Feels Like 66.6 °F
N
0.9
Wind Variable Wind from WNW
Gusts 1.0 mph

Today
High -- | Low -- °F
--% Chance of Precip.
Yesterday
High -- | Low -- °F
Precip. -- in
6:45 AM 6:32 PM
Waxing Crescent, 38% visible
Pressure 30.01 in
Visibility 10.0 miles
Clouds Mostly Cloudy 3200 ft
Dew Point 59 °F
Humidity 76%
Rainfall 0.00 in
Snow Depth Not available.
UV 3 out of 12
Pollen .50 out of 12
Air Quality Not available.
Flu Activity Not available.
METAR KVSF 301654Z AUTO VRB03KT 10SM BKN032 17/12 A3001 RMK AO2 SLP162 T01720122

More Conditions Fewer Conditions

Pressure 30.01 in
Visibility 10.0 miles
Clouds Mostly Cloudy 3200 ft
Dew Point 59 °F
Humidity 76%
Rainfall 0.00 in
Snow Depth Not available.
UV 3 out of 12
Pollen .50 out of 12
Air Quality Not available.
Flu Activity Not available.
METAR KVSF 301654Z AUTO VRB03KT 10SM BKN032 17/12 A3001 RMK AO2 SLP162 T01720122

More Conditions Fewer Conditions

10-Day Weather Forecast

Almanac

Astronomy

Sep. 30, 2014 Rise Set
Actual Time 6:45 AM EDT 6:32 PM EDT
Civil Twilight 6:17 AM EDT 7:00 PM EDT
Nautical Twilight 5:44 AM EDT 7:33 PM EDT
Astronomical Twilight 5:10 AM EDT 8:07 PM EDT
Moon 12:58 PM EDT 10:52 PM EDT
Length of Visible Light 12h 43m
Length of Day
11h 46m
Tomorrow will be 2m 55s shorter.
Waxing Crescent, 38% of the Moon is Illuminated
Today
Waxing Crescent
Oct 1
First Quarter
Oct 8
Full
Oct 15
Last Quarter
Oct 23
New

Today's Extremes

State Highs State Lows

Community

WunderPhotos

Upload Photos

1,757,693 photos uploaded!

Nearby

Air Quality

  Air Quality AQ Index Pollutant
Tuesday Good
PM2.5
Tuesday Good
OZONE
Wednesday Good
PM2.5
Wednesday Good
OZONE

Snow Depth

Station Depth Elevation
No new snow has been reported.

Earthquake Activity

City Distance Mag. Time & Date
No recent earthquake activity has been reported nearby.
Minimum magnitude displayed is 2.5.

Coastal Water Temperatures

Place Temperature
No Stations Reporting

Nearby Weather Stations